createdAt,value
2018-12-24T00:00:41.078Z,7.20
2018-12-24T00:03:22.039Z,7.50
2018-12-24T00:06:02.671Z,7.87
2018-12-24T00:08:42.935Z,7.23
2018-12-24T00:11:23.522Z,6.80
2018-12-24T00:14:04.262Z,7.00
2018-12-24T00:16:44.923Z,7.30
2018-12-24T00:19:25.780Z,7.10
2018-12-24T00:22:06.300Z,7.07
2018-12-24T00:24:46.630Z,7.43
2018-12-24T00:27:27.696Z,7.93
2018-12-24T00:30:07.918Z,8.27
2018-12-24T00:32:48.599Z,7.37
2018-12-24T00:35:28.885Z,7.70
2018-12-24T00:38:09.280Z,8.40
2018-12-24T00:40:49.868Z,7.80
2018-12-24T00:43:30.746Z,7.50
2018-12-24T00:46:11.143Z,7.83
2018-12-24T00:48:52.089Z,6.77
2018-12-24T00:51:34.003Z,7.10
2018-12-24T00:54:17.975Z,7.40
2018-12-24T00:56:58.318Z,7.70
2018-12-24T00:59:39.171Z,7.23
2018-12-24T01:02:19.843Z,7.13
2018-12-24T01:05:00.524Z,7.40
2018-12-24T01:07:41.140Z,7.20
2018-12-24T01:10:21.956Z,7.00
2018-12-24T01:13:02.469Z,7.10
2018-12-24T01:15:43.923Z,8.10
2018-12-24T01:18:24.367Z,7.70
2018-12-24T01:21:04.898Z,7.70
2018-12-24T01:23:45.293Z,7.43
2018-12-24T01:26:25.866Z,7.63
2018-12-24T01:29:06.733Z,7.57
2018-12-24T01:31:46.997Z,7.37
2018-12-24T01:34:27.538Z,7.07
2018-12-24T01:37:08.010Z,7.30
2018-12-24T01:39:48.731Z,7.70
2018-12-24T01:42:33.445Z,7.13
2018-12-24T01:45:12.323Z,7.03
2018-12-24T01:47:53.081Z,7.03
2018-12-24T01:50:33.347Z,6.63
2018-12-24T01:53:13.934Z,6.43
2018-12-24T01:55:54.180Z,6.33
2018-12-24T01:58:34.550Z,6.27
2018-12-24T02:01:15.035Z,5.97
2018-12-24T02:03:55.519Z,5.60
2018-12-24T02:06:35.958Z,6.00
2018-12-24T02:09:16.711Z,6.23
2018-12-24T02:11:57.376Z,6.40
2018-12-24T02:14:37.868Z,6.87
2018-12-24T02:17:19.330Z,6.30
2018-12-24T02:19:59.792Z,6.60
2018-12-24T02:22:40.165Z,6.83
2018-12-24T02:25:20.419Z,6.70
2018-12-24T02:28:01.249Z,6.60
2018-12-24T02:30:41.686Z,6.83
2018-12-24T02:33:22.175Z,6.90
2018-12-24T02:36:02.507Z,8.00
2018-12-24T02:38:43.195Z,7.77
2018-12-24T02:41:23.396Z,7.30
2018-12-24T02:44:03.831Z,7.30
2018-12-24T02:46:44.304Z,7.47
2018-12-24T02:49:24.522Z,6.93
2018-12-24T02:52:05.183Z,7.23
2018-12-24T02:54:45.542Z,6.70
2018-12-24T02:57:26.127Z,6.47
2018-12-24T03:00:06.678Z,6.53
2018-12-24T03:02:46.770Z,7.03
2018-12-24T03:05:27.507Z,6.97
2018-12-24T03:08:08.179Z,8.17
2018-12-24T03:10:48.450Z,7.67
2018-12-24T03:13:29.040Z,7.73
2018-12-24T03:16:09.671Z,7.10
2018-12-24T03:18:50.134Z,7.40
2018-12-24T03:21:31.409Z,7.37
2018-12-24T03:24:12.002Z,7.00
2018-12-24T03:26:52.451Z,6.60
2018-12-24T03:29:33.200Z,6.90
2018-12-24T03:32:13.547Z,6.73
2018-12-24T03:34:54.458Z,7.17
2018-12-24T03:37:34.599Z,6.43
2018-12-24T03:40:15.365Z,6.53
2018-12-24T03:42:55.543Z,6.40
2018-12-24T03:45:36.176Z,6.20
2018-12-24T03:48:16.695Z,6.40
2018-12-24T03:50:57.159Z,6.70
2018-12-24T03:53:37.584Z,6.27
2018-12-24T03:56:17.923Z,6.10
2018-12-24T03:58:58.694Z,6.23
2018-12-24T04:01:39.608Z,6.07
2018-12-24T04:04:20.603Z,5.97
2018-12-24T04:07:00.634Z,5.70
2018-12-24T04:09:41.136Z,5.83
2018-12-24T04:12:21.966Z,5.50
2018-12-24T04:15:02.470Z,5.37
2018-12-24T04:17:42.781Z,5.97
2018-12-24T04:20:23.063Z,5.53
2018-12-24T04:23:03.562Z,5.20
2018-12-24T04:25:44.263Z,5.83
2018-12-24T04:28:24.726Z,6.03
2018-12-24T04:31:05.187Z,6.07
2018-12-24T04:33:45.842Z,5.20
2018-12-24T04:36:26.399Z,5.77
2018-12-24T04:39:06.775Z,5.40
2018-12-24T04:41:47.404Z,5.50
2018-12-24T04:44:27.637Z,6.10
2018-12-24T04:47:08.326Z,5.83
2018-12-24T04:49:48.662Z,5.13
2018-12-24T04:52:28.797Z,4.87
2018-12-24T04:55:09.050Z,4.97
2018-12-24T04:57:49.566Z,4.63
2018-12-24T05:00:29.955Z,4.80
2018-12-24T05:03:10.396Z,5.97
2018-12-24T05:05:51.089Z,5.07
2018-12-24T05:08:31.364Z,5.20
2018-12-24T05:11:11.847Z,4.53
2018-12-24T05:13:52.275Z,5.10
2018-12-24T05:16:32.874Z,5.70
2018-12-24T05:19:13.311Z,5.03
2018-12-24T05:21:53.619Z,5.33
2018-12-24T05:24:33.998Z,5.23
2018-12-24T05:27:14.409Z,5.20
2018-12-24T05:29:55.319Z,5.20
2018-12-24T05:32:35.674Z,5.57
2018-12-24T05:35:16.304Z,5.77
2018-12-24T05:37:56.739Z,5.00
2018-12-24T05:40:37.153Z,4.80
2018-12-24T05:43:17.962Z,4.93
2018-12-24T05:45:58.258Z,5.00
2018-12-24T05:48:38.461Z,5.50
2018-12-24T05:51:18.682Z,4.83
2018-12-24T05:53:59.605Z,4.63
2018-12-24T05:56:39.931Z,5.00
2018-12-24T05:59:20.577Z,4.87
2018-12-24T06:02:01.165Z,4.97
2018-12-24T06:04:41.746Z,5.30
2018-12-24T06:07:22.106Z,4.93
2018-12-24T06:10:03.117Z,5.17
2018-12-24T06:12:43.562Z,4.83
2018-12-24T06:15:23.933Z,5.40
2018-12-24T06:18:04.136Z,4.77
2018-12-24T06:20:44.490Z,5.27
2018-12-24T06:23:24.858Z,4.70
2018-12-24T06:26:05.500Z,4.87
2018-12-24T06:28:45.935Z,5.10
2018-12-24T06:31:27.884Z,5.80
2018-12-24T06:34:08.157Z,5.07
2018-12-24T06:36:48.654Z,5.20
2018-12-24T06:39:29.217Z,5.23
2018-12-24T06:42:09.687Z,5.40
2018-12-24T06:44:50.005Z,5.00
2018-12-24T06:47:30.263Z,5.23
2018-12-24T06:50:10.893Z,4.90
2018-12-24T06:52:51.553Z,5.40
2018-12-24T06:55:31.939Z,5.33
2018-12-24T06:58:12.174Z,5.00
2018-12-24T07:00:52.810Z,5.00
2018-12-24T07:03:32.998Z,4.90
2018-12-24T07:06:13.335Z,5.23
2018-12-24T07:08:54.019Z,5.80
2018-12-24T07:11:34.715Z,5.60
2018-12-24T07:14:15.805Z,5.47
2018-12-24T07:16:55.950Z,5.70
2018-12-24T07:19:37.054Z,5.80
2018-12-24T07:22:17.342Z,5.20
2018-12-24T07:24:57.717Z,5.10
2018-12-24T07:27:38.070Z,5.10
2018-12-24T07:30:18.300Z,5.20
2018-12-24T07:32:58.712Z,5.30
2018-12-24T07:35:39.254Z,4.63
2018-12-24T07:38:19.498Z,5.70
2018-12-24T07:40:59.968Z,5.33
2018-12-24T07:43:40.453Z,5.37
2018-12-24T07:46:20.720Z,5.60
2018-12-24T07:49:04.276Z,5.90
2018-12-24T07:51:50.208Z,5.90
2018-12-24T07:54:31.910Z,5.70
2018-12-24T07:57:13.240Z,5.77
2018-12-24T07:59:54.852Z,5.63
2018-12-24T08:02:36.429Z,5.93
2018-12-24T08:05:16.937Z,6.63
2018-12-24T08:07:57.142Z,6.50
2018-12-24T08:10:37.706Z,6.83
2018-12-24T08:13:18.300Z,7.83
2018-12-24T08:15:59.388Z,7.67
2018-12-24T08:18:40.158Z,7.27
2018-12-24T08:21:21.261Z,8.07
2018-12-24T08:24:01.396Z,8.10
2018-12-24T08:26:41.778Z,7.00
2018-12-24T08:29:22.328Z,7.00
2018-12-24T08:32:02.952Z,7.20
2018-12-24T08:34:43.911Z,7.40
2018-12-24T08:37:22.947Z,6.70
2018-12-24T08:40:03.198Z,6.90
2018-12-24T08:42:43.430Z,6.67
2018-12-24T08:45:24.060Z,6.07
2018-12-24T08:48:04.407Z,6.70
2018-12-24T08:50:45.084Z,7.40
2018-12-24T08:53:25.654Z,6.93
2018-12-24T08:56:06.322Z,6.90
2018-12-24T08:58:46.822Z,6.40
2018-12-24T09:01:27.227Z,6.40
2018-12-24T09:04:07.781Z,7.43
2018-12-24T09:06:48.234Z,7.20
2018-12-24T09:09:28.599Z,7.30
2018-12-24T09:12:09.200Z,7.27
2018-12-24T09:14:50.326Z,6.80
2018-12-24T09:17:30.973Z,7.80
2018-12-24T09:20:12.333Z,7.83
2018-12-24T09:22:53.469Z,12.30
2018-12-24T09:25:34.864Z,18.37
2018-12-24T09:28:16.233Z,22.50
2018-12-24T09:30:56.721Z,23.43
2018-12-24T09:33:38.230Z,24.37
2018-12-24T09:36:18.823Z,29.17
2018-12-24T09:38:59.918Z,16.13
2018-12-24T09:41:40.113Z,12.80
2018-12-24T09:44:21.193Z,11.53
2018-12-24T09:47:01.474Z,9.03
2018-12-24T09:49:42.697Z,9.57
2018-12-24T09:52:23.640Z,9.60
2018-12-24T09:55:04.162Z,9.27
2018-12-24T09:57:44.480Z,7.83
2018-12-24T10:00:25.405Z,7.80
2018-12-24T10:03:06.478Z,8.57
2018-12-24T10:05:46.660Z,8.80
2018-12-24T10:08:27.127Z,8.30
2018-12-24T10:11:07.437Z,8.73
2018-12-24T10:13:47.591Z,8.40
2018-12-24T10:16:28.238Z,7.87
2018-12-24T10:19:09.251Z,8.10
2018-12-24T10:21:49.806Z,8.27
2018-12-24T10:24:30.398Z,13.73
2018-12-24T10:27:58.566Z,12.43
2018-12-24T10:30:38.898Z,9.73
2018-12-24T10:33:19.007Z,10.60
2018-12-24T10:35:59.020Z,8.43
2018-12-24T10:38:39.156Z,9.30
2018-12-24T10:41:19.193Z,11.67
2018-12-24T10:43:59.247Z,15.60
2018-12-24T10:46:39.655Z,12.83
2018-12-24T10:49:20.351Z,9.80
2018-12-24T10:52:00.366Z,8.50
2018-12-24T10:54:40.405Z,8.23
2018-12-24T10:57:21.127Z,8.23
2018-12-24T11:00:01.810Z,8.30
2018-12-24T11:02:42.732Z,8.37
2018-12-24T11:05:22.672Z,7.83
2018-12-24T11:08:02.668Z,8.47
2018-12-24T11:10:42.721Z,9.03
2018-12-24T11:13:22.677Z,8.73
2018-12-24T11:16:03.000Z,7.90
2018-12-24T11:18:44.204Z,10.50
2018-12-24T11:21:25.279Z,8.27
2018-12-24T11:24:07.426Z,10.83
2018-12-24T11:26:48.161Z,9.87
2018-12-24T11:29:28.029Z,8.57
2018-12-24T11:32:08.084Z,9.03
2018-12-24T11:34:48.050Z,8.90
2018-12-24T11:37:28.102Z,9.60
2018-12-24T11:40:08.054Z,11.43
2018-12-24T11:42:48.474Z,13.50
2018-12-24T11:45:33.843Z,13.47
2018-12-24T11:48:11.174Z,8.83
2018-12-24T11:50:51.442Z,7.87
2018-12-24T11:53:31.418Z,8.47
2018-12-24T11:56:11.617Z,9.30
2018-12-24T11:58:51.778Z,7.83
2018-12-24T12:01:31.830Z,7.80
2018-12-24T12:04:11.889Z,8.23
2018-12-24T12:06:52.115Z,7.23
2018-12-24T12:09:33.290Z,8.07
2018-12-24T12:12:13.915Z,7.80
2018-12-24T12:14:53.935Z,8.00
2018-12-24T12:17:34.014Z,7.67
2018-12-24T12:20:13.870Z,9.50
2018-12-24T12:22:54.688Z,9.73
2018-12-24T12:25:35.012Z,8.47
2018-12-24T12:28:17.135Z,7.40
2018-12-24T12:30:56.996Z,7.07
2018-12-24T12:33:36.900Z,7.90
2018-12-24T12:36:17.146Z,7.50
2018-12-24T12:38:57.654Z,7.47
2018-12-24T12:41:38.030Z,7.50
2018-12-24T12:44:18.167Z,7.53
2018-12-24T12:46:58.225Z,7.40
2018-12-24T12:49:38.165Z,7.63
2018-12-24T12:54:28.286Z,7.07
2018-12-24T12:56:56.199Z,7.27
2018-12-24T12:59:25.157Z,7.40
2018-12-24T13:01:53.198Z,8.60
2018-12-24T13:04:21.496Z,7.53
2018-12-24T13:06:49.514Z,7.77
2018-12-24T13:09:18.070Z,7.53
2018-12-24T13:11:46.017Z,7.00
2018-12-24T13:14:13.819Z,7.17
2018-12-24T13:16:41.765Z,7.13
2018-12-24T13:19:09.683Z,7.73
2018-12-24T13:21:37.498Z,6.97
2018-12-24T13:24:05.988Z,7.60
2018-12-24T13:26:33.898Z,7.67
2018-12-24T13:29:02.453Z,7.87
2018-12-24T13:31:31.326Z,8.23
2018-12-24T13:33:59.719Z,8.47
2018-12-24T13:36:28.307Z,9.10
2018-12-24T13:38:57.136Z,9.07
2018-12-24T13:41:26.166Z,8.93
2018-12-24T13:43:54.079Z,8.77
2018-12-24T13:46:22.235Z,9.03
2018-12-24T13:48:50.061Z,9.27
2018-12-24T13:51:17.887Z,8.07
2018-12-24T13:53:47.435Z,9.23
2018-12-24T13:56:15.981Z,8.30
2018-12-24T13:58:43.928Z,13.37
2018-12-24T14:01:12.994Z,9.43
2018-12-24T14:03:41.374Z,10.10
2018-12-24T14:06:09.945Z,10.77
2018-12-24T14:08:37.817Z,9.53
2018-12-24T14:11:05.795Z,10.03
2018-12-24T14:13:34.282Z,8.07
2018-12-24T14:16:02.999Z,7.57
2018-12-24T14:18:31.660Z,7.67
2018-12-24T14:21:00.345Z,9.60
2018-12-24T14:23:28.744Z,9.53
2018-12-24T14:25:57.556Z,8.00
2018-12-24T14:28:26.205Z,8.00
2018-12-24T14:30:54.929Z,8.00
2018-12-24T14:33:25.465Z,8.70
2018-12-24T14:35:54.010Z,7.70
2018-12-24T14:38:22.811Z,9.53
2018-12-24T14:40:51.412Z,8.40
2018-12-24T14:43:22.399Z,8.73
2018-12-24T14:45:55.854Z,8.43
2018-12-24T14:48:25.843Z,8.00
2018-12-24T14:50:54.824Z,8.10
2018-12-24T14:53:23.317Z,7.73
2018-12-24T14:55:51.983Z,7.90
2018-12-24T14:58:20.871Z,7.43
2018-12-24T15:00:49.848Z,8.20
2018-12-24T15:03:19.068Z,8.43
2018-12-24T15:05:48.494Z,8.10
2018-12-24T15:08:17.108Z,8.50
2018-12-24T15:10:45.637Z,8.63
2018-12-24T15:13:14.239Z,7.60
2018-12-24T15:15:43.313Z,7.33
2018-12-24T15:18:12.110Z,15.10
2018-12-24T15:20:39.948Z,43.10
2018-12-24T15:23:08.487Z,14.37
2018-12-24T15:25:37.453Z,11.60
2018-12-24T15:28:05.719Z,10.67
2018-12-24T15:30:33.715Z,13.17
2018-12-24T15:33:02.275Z,9.43
2018-12-24T15:35:30.724Z,8.20
2018-12-24T15:37:59.263Z,8.73
2018-12-24T15:40:27.918Z,8.43
2018-12-24T15:42:56.594Z,9.17
2018-12-24T15:45:25.601Z,10.70
2018-12-24T15:47:54.399Z,9.30
2018-12-24T15:50:22.892Z,10.10
2018-12-24T15:52:51.577Z,9.60
2018-12-24T15:55:20.126Z,9.90
2018-12-24T15:57:48.737Z,9.23
2018-12-24T16:00:19.081Z,8.63
2018-12-24T16:02:48.627Z,8.33
2018-12-24T16:05:17.727Z,8.60
2018-12-24T16:07:46.361Z,8.67
2018-12-24T16:10:15.075Z,7.80
2018-12-24T16:12:43.498Z,8.40
2018-12-24T16:15:12.264Z,9.63
2018-12-24T16:17:41.467Z,9.93
2018-12-24T16:20:10.172Z,10.30
2018-12-24T16:22:39.599Z,9.37
2018-12-24T16:25:08.639Z,9.00
2018-12-24T16:27:37.052Z,9.03
2018-12-24T16:30:06.782Z,9.20
2018-12-24T16:32:35.036Z,8.50
2018-12-24T16:35:02.864Z,8.80
2018-12-24T16:37:31.611Z,8.87
2018-12-24T16:40:00.270Z,10.03
2018-12-24T16:42:28.943Z,10.77
2018-12-24T16:44:57.461Z,10.60
2018-12-24T16:47:26.832Z,10.90
2018-12-24T16:49:55.608Z,10.67
2018-12-24T16:52:27.403Z,11.37
2018-12-24T16:54:56.266Z,10.80
2018-12-24T16:57:25.166Z,11.07
2018-12-24T16:59:54.509Z,10.97
2018-12-24T17:02:23.770Z,10.73
2018-12-24T17:04:52.244Z,11.27
2018-12-24T17:07:22.397Z,11.33
2018-12-24T17:09:51.019Z,11.57
2018-12-24T17:12:19.806Z,12.10
2018-12-24T17:14:48.559Z,11.67
2018-12-24T17:17:17.581Z,12.73
2018-12-24T17:19:46.478Z,12.93
2018-12-24T17:22:15.246Z,13.03
2018-12-24T17:24:44.051Z,13.47
2018-12-24T17:27:12.853Z,12.43
2018-12-24T17:29:41.570Z,12.87
2018-12-24T17:32:10.947Z,14.40
2018-12-24T17:34:39.505Z,13.73
2018-12-24T17:37:08.242Z,14.00
2018-12-24T17:39:36.574Z,14.57
2018-12-24T17:42:04.913Z,15.50
2018-12-24T17:44:33.907Z,16.13
2018-12-24T17:47:02.513Z,17.53
2018-12-24T17:49:31.227Z,16.50
2018-12-24T17:51:59.929Z,16.90
2018-12-24T17:54:28.579Z,19.07
2018-12-24T17:56:57.669Z,34.37
2018-12-24T17:59:26.180Z,32.23
2018-12-24T18:01:55.038Z,29.23
2018-12-24T18:04:23.736Z,35.93
2018-12-24T18:06:52.241Z,39.30
2018-12-24T18:09:20.895Z,38.57
2018-12-24T18:11:49.577Z,37.67
2018-12-24T18:14:18.280Z,34.37
2018-12-24T18:16:46.957Z,29.70
2018-12-24T18:19:16.762Z,26.90
2018-12-24T18:21:44.961Z,26.40
2018-12-24T18:24:13.642Z,23.33
2018-12-24T18:26:42.304Z,21.23
2018-12-24T18:29:11.000Z,21.67
2018-12-24T18:31:39.831Z,22.53
2018-12-24T18:34:08.580Z,24.63
2018-12-24T18:36:37.281Z,24.80
2018-12-24T18:39:06.966Z,20.97
2018-12-24T18:41:35.657Z,22.07
2018-12-24T18:44:04.352Z,40.20
2018-12-24T18:46:33.625Z,34.10
2018-12-24T18:49:02.530Z,48.33
2018-12-24T18:51:31.239Z,31.00
2018-12-24T18:53:59.897Z,31.07
2018-12-24T18:56:29.310Z,23.03
2018-12-24T18:58:57.905Z,21.33
2018-12-24T19:01:26.769Z,15.70
2018-12-24T19:03:56.075Z,17.10
2018-12-24T19:06:27.034Z,17.87
2018-12-24T19:08:55.272Z,16.67
2018-12-24T19:11:23.967Z,17.00
2018-12-24T19:13:53.412Z,15.50
2018-12-24T19:16:21.746Z,16.17
2018-12-24T19:18:51.466Z,14.40
2018-12-24T19:21:20.185Z,13.80
2018-12-24T19:23:48.829Z,12.83
2018-12-24T19:26:17.528Z,13.80
2018-12-24T19:28:46.217Z,12.70
2018-12-24T19:31:19.027Z,11.67
2018-12-24T19:33:47.882Z,11.47
2018-12-24T19:36:16.589Z,13.83
2018-12-24T19:38:45.261Z,11.33
2018-12-24T19:41:13.912Z,11.17
2018-12-24T19:43:42.646Z,12.27
2018-12-24T19:46:10.880Z,11.67
2018-12-24T19:48:39.577Z,10.40
2018-12-24T19:51:08.200Z,9.87
2018-12-24T19:53:36.750Z,10.63
2018-12-24T19:56:05.836Z,11.27
2018-12-24T19:58:34.237Z,10.63
2018-12-24T20:01:02.872Z,11.43
2018-12-24T20:03:31.065Z,15.80
2018-12-24T20:05:59.778Z,16.67
2018-12-24T20:08:28.469Z,19.20
2018-12-24T20:10:57.145Z,20.00
2018-12-24T20:13:26.114Z,15.47
2018-12-24T20:15:54.554Z,20.13
2018-12-24T20:18:33.261Z,24.80
2018-12-24T20:21:01.918Z,23.53
2018-12-24T20:23:38.061Z,15.27
2018-12-24T20:26:13.542Z,19.07
2018-12-24T20:28:42.122Z,12.67
2018-12-24T20:31:17.560Z,11.67
2018-12-24T20:33:46.986Z,14.03
2018-12-24T20:36:15.537Z,10.50
2018-12-24T20:38:44.217Z,10.27
2018-12-24T20:41:12.936Z,9.43
2018-12-24T20:43:41.589Z,9.20
2018-12-24T20:46:10.083Z,8.73
2018-12-24T20:48:38.793Z,9.23
2018-12-24T20:51:15.943Z,10.60
2018-12-24T20:53:37.761Z,18.83
2018-12-24T20:56:06.486Z,10.87
2018-12-24T20:58:35.535Z,9.37
2018-12-24T21:01:03.841Z,8.13
2018-12-24T21:03:32.656Z,7.87
2018-12-24T21:06:01.199Z,8.47
2018-12-24T21:08:35.235Z,8.53
2018-12-24T21:11:03.889Z,8.87
2018-12-24T21:13:32.565Z,10.13
2018-12-24T21:16:01.073Z,10.83
2018-12-24T21:18:29.741Z,11.23
2018-12-24T21:20:57.999Z,11.73
2018-12-24T21:23:26.715Z,11.87
2018-12-24T21:25:55.387Z,13.20
2018-12-24T21:28:24.070Z,13.00
2018-12-24T21:30:52.783Z,12.93
2018-12-24T21:33:21.431Z,13.60
2018-12-24T21:35:50.149Z,13.87
2018-12-24T21:38:18.670Z,14.13
2018-12-24T21:40:46.867Z,12.83
2018-12-24T21:43:15.561Z,14.17
2018-12-24T21:45:44.271Z,12.80
2018-12-24T21:48:13.109Z,13.10
2018-12-24T21:50:41.640Z,12.83
2018-12-24T21:53:09.479Z,12.00
2018-12-24T21:55:37.282Z,12.50
2018-12-24T21:58:05.864Z,12.47
2018-12-24T22:00:34.389Z,12.30
2018-12-24T22:03:02.314Z,11.10
2018-12-24T22:05:30.686Z,12.87
2018-12-24T22:07:59.382Z,15.20
2018-12-24T22:10:31.722Z,11.80
2018-12-24T22:13:00.435Z,12.00
2018-12-24T22:15:29.124Z,12.60
2018-12-24T22:17:58.296Z,11.83
2018-12-24T22:20:27.099Z,13.60
2018-12-24T22:22:56.287Z,11.67
2018-12-24T22:25:24.798Z,10.17
2018-12-24T22:27:53.382Z,14.17
2018-12-24T22:30:21.414Z,12.00
2018-12-24T22:32:49.889Z,10.80
2018-12-24T22:35:18.629Z,10.30
2018-12-24T22:37:47.290Z,9.80
2018-12-24T22:40:15.534Z,9.83
2018-12-24T22:42:44.043Z,10.07
2018-12-24T22:45:12.713Z,11.47
2018-12-24T22:47:41.640Z,10.70
2018-12-24T22:50:10.028Z,11.90
2018-12-24T22:52:38.786Z,11.53
2018-12-24T22:55:07.454Z,10.63
2018-12-24T22:57:35.897Z,11.27
2018-12-24T23:00:07.385Z,11.50
2018-12-24T23:02:36.198Z,11.73
2018-12-24T23:05:04.540Z,11.10
2018-12-24T23:07:32.350Z,14.17
2018-12-24T23:10:00.258Z,13.40
2018-12-24T23:12:28.048Z,13.03
2018-12-24T23:14:55.863Z,14.57
2018-12-24T23:17:23.719Z,20.53
2018-12-24T23:19:51.587Z,15.23
2018-12-24T23:22:19.407Z,17.37
2018-12-24T23:24:47.339Z,18.17
2018-12-24T23:27:15.237Z,18.87
2018-12-24T23:29:43.142Z,20.47
2018-12-24T23:32:11.054Z,20.13
2018-12-24T23:34:38.985Z,17.80
2018-12-24T23:37:06.794Z,19.20
2018-12-24T23:39:34.638Z,21.03
2018-12-24T23:42:02.439Z,19.40
2018-12-24T23:44:30.245Z,20.80
2018-12-24T23:46:58.074Z,24.47
2018-12-24T23:49:25.875Z,20.87
2018-12-24T23:51:53.853Z,20.03
2018-12-24T23:54:22.429Z,18.57
2018-12-24T23:56:51.125Z,20.10
2018-12-24T23:59:19.347Z,23.87
